Time;durP1;ratioP1;P1;durP2;ratioP2;P2;SDS_P1;SDS_P2;PMS_P1;PMS_P2;Temp;Humidity;BMP_temperature;BMP_pressure;BME280_temperature;BME280_humidity;BME280_pressure;Samples;Min_cycle;Max_cycle;Signal;HPM_P1;HPM_P2
2022/04/03 00:02:03;;;;;;;8.00;5.30;;;;;;;0.80;100.00;97791.66;1685521;84;20992;-66
2022/04/03 00:04:31;;;;;;;6.78;5.22;;;;;;;0.79;100.00;97788.71;1685121;84;21003;-66
2022/04/03 00:07:00;;;;;;;8.05;5.37;;;;;;;0.79;100.00;97788.71;1682339;84;21733;-66
2022/04/03 00:09:28;;;;;;;7.42;5.40;;;;;;;0.80;100.00;97786.27;1683363;84;21027;-67
2022/04/03 00:11:55;;;;;;;6.30;4.92;;;;;;;0.78;100.00;97782.50;1683747;84;21254;-67
2022/04/03 00:14:24;;;;;;;7.95;5.35;;;;;;;0.76;100.00;97778.49;1685078;84;20956;-67
2022/04/03 00:16:52;;;;;;;6.87;4.87;;;;;;;0.75;100.00;97780.94;1684711;84;20915;-67
2022/04/03 00:19:20;;;;;;;7.62;5.12;;;;;;;0.74;100.00;97773.39;1669455;84;21076;-65
2022/04/03 00:21:46;;;;;;;9.88;5.72;;;;;;;0.75;100.00;97773.64;1656515;85;21035;-65
2022/04/03 00:24:15;;;;;;;6.90;5.05;;;;;;;0.76;100.00;97775.24;1688182;83;21250;-65
2022/04/03 00:26:42;;;;;;;7.25;5.22;;;;;;;0.76;100.00;97771.74;1708592;82;20957;-64
2022/04/03 00:29:08;;;;;;;7.65;5.75;;;;;;;0.77;100.00;97769.30;1669869;83;21749;-65
2022/04/03 00:31:36;;;;;;;8.13;5.75;;;;;;;0.77;100.00;97774.70;1686008;83;20908;-66
2022/04/03 00:34:03;;;;;;;6.72;4.85;;;;;;;0.76;100.00;97767.69;1652449;85;21153;-67
2022/04/03 00:36:31;;;;;;;8.03;6.03;;;;;;;0.75;100.00;97768.23;1646971;86;22157;-65
2022/04/03 00:38:58;;;;;;;9.15;5.78;;;;;;;0.78;100.00;97773.59;1651334;86;20919;-66
2022/04/03 00:41:26;;;;;;;11.75;5.72;;;;;;;0.83;100.00;97772.17;1627571;86;21077;-67
2022/04/03 00:43:53;;;;;;;9.03;5.83;;;;;;;0.86;100.00;97773.73;1697046;83;20985;-67
2022/04/03 00:46:24;;;;;;;12.53;6.67;;;;;;;0.87;100.00;97775.88;1699271;83;20932;-66
2022/04/03 00:48:52;;;;;;;9.85;5.42;;;;;;;0.88;100.00;97771.53;1698021;83;21935;-65
2022/04/03 00:51:19;;;;;;;10.23;6.33;;;;;;;0.87;100.00;97771.28;1709496;83;20995;-66
2022/04/03 00:53:46;;;;;;;9.78;6.45;;;;;;;0.88;100.00;97776.14;1717459;83;20999;-66
2022/04/03 00:56:15;;;;;;;9.85;6.42;;;;;;;0.87;100.00;97780.73;1706345;83;21070;-65
2022/04/03 00:58:42;;;;;;;17.27;7.15;;;;;;;0.89;100.00;97776.39;1691956;83;20984;-66
2022/04/03 01:01:08;;;;;;;11.60;6.90;;;;;;;0.92;100.00;97783.36;1666738;84;21259;-64
2022/04/03 01:03:37;;;;;;;12.10;6.03;;;;;;;0.93;100.00;97785.51;1711231;83;21127;-65
2022/04/03 01:06:04;;;;;;;8.58;6.10;;;;;;;0.92;100.00;97787.41;1700783;83;20904;-67
2022/04/03 01:08:33;;;;;;;8.18;5.78;;;;;;;0.91;100.00;97789.86;1658430;85;21031;-66
2022/04/03 01:11:01;;;;;;;7.95;5.45;;;;;;;0.92;100.00;97784.70;1700306;83;21000;-67
2022/04/03 01:13:29;;;;;;;8.50;5.55;;;;;;;0.94;100.00;97783.06;1708051;83;21999;-67
2022/04/03 01:15:59;;;;;;;8.58;5.72;;;;;;;0.94;100.00;97794.67;1713568;83;21440;-67
2022/04/03 01:18:27;;;;;;;8.35;5.62;;;;;;;0.94;100.00;97796.02;1671251;84;21064;-66
2022/04/03 01:20:54;;;;;;;8.48;5.50;;;;;;;0.94;100.00;97795.22;1663318;85;21019;-66
2022/04/03 01:23:22;;;;;;;6.90;4.87;;;;;;;0.93;100.00;97788.21;1681415;84;21566;-65
2022/04/03 01:25:48;;;;;;;6.25;4.75;;;;;;;0.92;100.00;97789.31;1682792;84;21126;-66
2022/04/03 01:28:17;;;;;;;7.50;5.20;;;;;;;0.87;100.00;97790.19;1683006;85;20936;-66
2022/04/03 01:30:44;;;;;;;6.67;5.05;;;;;;;0.85;100.00;97794.28;1677345;83;21527;-66
2022/04/03 01:33:11;;;;;;;5.45;4.75;;;;;;;0.81;100.00;97796.77;1684862;84;20936;-66
2022/04/03 01:35:37;;;;;;;7.90;4.47;;;;;;;0.77;100.00;97799.81;1683867;84;21447;-65
2022/04/03 01:38:05;;;;;;;6.90;4.78;;;;;;;0.71;100.00;97801.53;1666406;85;21142;-66
2022/04/03 01:40:35;;;;;;;7.30;5.30;;;;;;;0.64;100.00;97801.91;1675725;83;20996;-66
2022/04/03 01:43:03;;;;;;;7.45;5.62;;;;;;;0.61;100.00;97808.69;1675731;85;20952;-66
2022/04/03 01:45:31;;;;;;;7.33;5.00;;;;;;;0.58;100.00;97806.58;1679709;84;21023;-66
2022/04/03 01:47:58;;;;;;;8.13;5.12;;;;;;;0.57;100.00;97806.90;1674837;84;21035;-66
2022/04/03 01:50:25;;;;;;;5.67;4.35;;;;;;;0.56;100.00;97812.84;1677976;85;21136;-66
2022/04/03 01:52:53;;;;;;;6.85;5.30;;;;;;;0.55;100.00;97814.48;1676454;84;21008;-66
2022/04/03 01:55:20;;;;;;;8.15;5.33;;;;;;;0.52;100.00;97802.92;1679297;84;20995;-67
2022/04/03 01:57:48;;;;;;;8.15;5.72;;;;;;;0.53;100.00;97808.58;1683010;84;20956;-66
2022/04/03 02:00:16;;;;;;;8.60;5.70;;;;;;;0.55;100.00;97799.64;1682263;85;20936;-66
2022/04/03 02:02:43;;;;;;;10.15;6.37;;;;;;;0.59;100.00;97801.43;1681493;84;21078;-67
2022/04/03 02:05:10;;;;;;;9.30;6.53;;;;;;;0.64;100.00;97801.91;1682004;84;21008;-67
2022/04/03 02:07:38;;;;;;;9.40;6.10;;;;;;;0.68;100.00;97804.82;1676495;84;21482;-66
2022/04/03 02:10:08;;;;;;;9.85;6.08;;;;;;;0.71;100.00;97808.28;1682093;84;20951;-65
2022/04/03 02:12:37;;;;;;;13.80;8.37;;;;;;;0.69;100.00;97799.67;1684899;84;20924;-65
2022/04/03 02:15:07;;;;;;;10.00;6.03;;;;;;;0.66;100.00;97796.46;1678962;84;22144;-67
2022/04/03 02:17:34;;;;;;;7.28;5.47;;;;;;;0.71;100.00;97794.78;1682333;84;21575;-67
2022/04/03 02:20:01;;;;;;;9.23;5.87;;;;;;;0.72;100.00;97795.84;1680541;85;20916;-67
2022/04/03 02:22:30;;;;;;;9.10;6.37;;;;;;;0.68;100.00;97794.02;1681133;84;21085;-67
2022/04/03 02:24:57;;;;;;;14.20;7.10;;;;;;;0.62;100.00;97798.14;1682849;84;21053;-65
2022/04/03 02:27:25;;;;;;;9.13;6.12;;;;;;;0.62;100.00;97797.34;1679268;84;21417;-65
2022/04/03 02:29:53;;;;;;;10.98;6.80;;;;;;;0.62;100.00;97803.55;1681677;84;20976;-65
2022/04/03 02:32:20;;;;;;;9.15;6.25;;;;;;;0.61;100.00;97803.30;1676259;84;21044;-67
2022/04/03 02:34:47;;;;;;;9.53;6.28;;;;;;;0.58;100.00;97800.38;1680872;84;21461;-67
2022/04/03 02:37:14;;;;;;;9.45;6.12;;;;;;;0.58;100.00;97803.88;1681575;84;20904;-65
2022/04/03 02:39:43;;;;;;;9.88;5.65;;;;;;;0.58;100.00;97805.23;1680251;84;21143;-67
2022/04/03 02:42:10;;;;;;;9.33;5.58;;;;;;;0.60;100.00;97812.48;1682197;84;20980;-66
2022/04/03 02:44:37;;;;;;;8.00;5.28;;;;;;;0.63;100.00;97817.85;1677529;84;20908;-67
2022/04/03 02:47:05;;;;;;;8.98;5.90;;;;;;;0.65;100.00;97810.26;1681454;84;20889;-67
2022/04/03 02:49:33;;;;;;;8.20;5.53;;;;;;;0.69;100.00;97799.67;1680423;84;21467;-66
2022/04/03 02:51:59;;;;;;;7.95;5.90;;;;;;;0.71;100.00;97800.18;1676505;84;21210;-67
2022/04/03 02:54:26;;;;;;;6.80;5.17;;;;;;;0.73;100.00;97801.49;1676805;84;20936;-67
2022/04/03 02:56:53;;;;;;;9.00;6.37;;;;;;;0.74;100.00;97803.64;1682520;84;21487;-67
2022/04/03 02:59:20;;;;;;;11.12;6.28;;;;;;;0.71;100.00;97802.88;1680111;84;21000;-67
2022/04/03 03:01:47;;;;;;;9.65;6.22;;;;;;;0.71;100.00;97808.28;1677119;84;20966;-69
2022/04/03 03:04:14;;;;;;;8.98;6.05;;;;;;;0.68;100.00;97808.88;1678115;84;21129;-66
2022/04/03 03:06:41;;;;;;;11.55;6.37;;;;;;;0.64;100.00;97807.30;1676849;84;20975;-67
2022/04/03 03:09:08;;;;;;;8.80;5.95;;;;;;;0.60;100.00;97811.69;1679533;85;21404;-66
2022/04/03 03:11:36;;;;;;;9.98;6.80;;;;;;;0.56;100.00;97823.65;1672450;85;20952;-67
2022/04/03 03:14:03;;;;;;;8.60;6.12;;;;;;;0.53;100.00;97816.13;1668281;84;21481;-66
2022/04/03 03:16:31;;;;;;;9.58;6.15;;;;;;;0.52;100.00;97817.23;1671838;84;22095;-67
2022/04/03 03:18:58;;;;;;;9.30;6.50;;;;;;;0.52;100.00;97814.53;1675850;85;20936;-66
2022/04/03 03:21:25;;;;;;;8.13;5.72;;;;;;;0.53;100.00;97821.53;1678467;83;21460;-66
2022/04/03 03:23:54;;;;;;;7.50;5.83;;;;;;;0.50;100.00;97819.41;1668083;85;20996;-65
2022/04/03 03:26:21;;;;;;;9.90;6.42;;;;;;;0.50;100.00;97819.96;1674082;85;21032;-66
2022/04/03 03:28:48;;;;;;;8.15;6.22;;;;;;;0.49;100.00;97817.01;1681948;85;21252;-66
2022/04/03 03:31:15;;;;;;;10.10;7.12;;;;;;;0.49;100.00;97823.76;1669254;84;20963;-66
2022/04/03 03:33:42;;;;;;;7.90;5.92;;;;;;;0.50;100.00;97831.56;1677093;85;20962;-66
2022/04/03 03:36:11;;;;;;;7.45;5.75;;;;;;;0.49;100.00;97834.56;1677131;85;21485;-66
2022/04/03 03:38:38;;;;;;;7.87;5.62;;;;;;;0.51;100.00;97838.57;1675533;84;21182;-66
2022/04/03 03:41:06;;;;;;;7.72;5.87;;;;;;;0.53;100.00;97845.03;1665963;85;22058;-66
2022/04/03 03:43:33;;;;;;;8.78;5.90;;;;;;;0.52;100.00;97845.58;1679056;85;21584;-66
2022/04/03 03:46:00;;;;;;;9.93;5.65;;;;;;;0.53;100.00;97852.58;1731730;82;20936;-66
2022/04/03 03:48:27;;;;;;;7.55;5.92;;;;;;;0.53;100.00;97850.43;1733925;82;20990;-64
2022/04/03 03:50:55;;;;;;;8.43;6.53;;;;;;;0.55;100.00;97857.14;1727001;82;21412;-64
2022/04/03 03:53:22;;;;;;;8.38;6.20;;;;;;;0.56;100.00;97856.59;1734951;82;21246;-64
2022/04/03 03:55:50;;;;;;;8.50;5.85;;;;;;;0.56;100.00;97864.16;1728287;82;21011;-65
2022/04/03 03:58:17;;;;;;;8.80;6.53;;;;;;;0.56;100.00;97866.05;1733173;81;20868;-65
2022/04/03 04:00:45;;;;;;;9.20;5.65;;;;;;;0.58;100.00;97869.23;1739185;81;21591;-68
2022/04/03 04:03:12;;;;;;;10.82;7.08;;;;;;;0.58;100.00;97872.73;1716572;81;20920;-66
2022/04/03 04:05:40;;;;;;;8.53;5.62;;;;;;;0.58;100.00;97876.78;1730882;81;21234;-66
2022/04/03 04:08:08;;;;;;;7.33;5.58;;;;;;;0.59;100.00;97875.69;1737370;81;21003;-66
2022/04/03 04:10:35;;;;;;;9.85;6.80;;;;;;;0.60;100.00;97872.44;1715933;82;20991;-66
2022/04/03 04:13:03;;;;;;;8.78;5.90;;;;;;;0.59;100.00;97877.04;1726491;81;22361;-66
2022/04/03 04:15:31;;;;;;;7.28;5.80;;;;;;;0.62;100.00;97877.81;1723406;82;21043;-66
2022/04/03 04:17:59;;;;;;;9.95;6.58;;;;;;;0.62;100.00;97877.81;1736718;81;21515;-66
2022/04/03 04:20:27;;;;;;;9.75;5.67;;;;;;;0.60;100.00;97874.59;1711220;82;21105;-66
2022/04/03 04:22:53;;;;;;;8.15;5.87;;;;;;;0.58;100.00;97877.33;1732694;80;20884;-66
2022/04/03 04:25:20;;;;;;;8.80;6.05;;;;;;;0.55;100.00;97874.70;1722609;82;20936;-66
2022/04/03 04:27:48;;;;;;;8.40;5.83;;;;;;;0.54;100.00;97879.84;1722252;81;21000;-66
2022/04/03 04:30:17;;;;;;;8.10;5.67;;;;;;;0.55;100.00;97878.75;1738691;82;21259;-67
2022/04/03 04:32:45;;;;;;;8.50;5.67;;;;;;;0.56;100.00;97884.95;1711050;82;20916;-66
2022/04/03 04:35:13;;;;;;;9.35;6.12;;;;;;;0.59;100.00;97883.79;1730837;81;20936;-66
2022/04/03 04:37:42;;;;;;;9.23;6.33;;;;;;;0.58;100.00;97882.19;1723223;82;20989;-66
2022/04/03 04:40:12;;;;;;;9.98;6.92;;;;;;;0.56;100.00;97880.35;1729722;81;20965;-67
2022/04/03 04:42:41;;;;;;;8.23;5.58;;;;;;;0.56;100.00;97880.35;1717388;82;21125;-66
2022/04/03 04:45:14;;;;;;;7.50;5.78;;;;;;;0.58;100.00;97877.33;1721014;82;20988;-65
2022/04/03 04:47:38;;;;;;;8.30;5.60;;;;;;;0.61;100.00;97880.25;1721905;82;20980;-69
2022/04/03 04:50:14;;;;;;;7.85;5.75;;;;;;;0.63;100.00;97874.02;1717959;82;21011;-65
2022/04/03 04:52:42;;;;;;;9.78;6.40;;;;;;;0.65;100.00;97870.47;1710460;82;20996;-65
2022/04/03 04:55:11;;;;;;;8.25;5.65;;;;;;;0.70;100.00;97872.84;1711450;83;21594;-65
2022/04/03 04:57:38;;;;;;;9.45;6.95;;;;;;;0.75;100.00;97870.08;1712289;82;21003;-66
2022/04/03 05:00:08;;;;;;;8.45;6.17;;;;;;;0.74;100.00;97867.92;1709864;82;21055;-65
2022/04/03 05:02:35;;;;;;;9.08;6.78;;;;;;;0.75;100.00;97871.42;1671158;83;21412;-66
2022/04/03 05:05:05;;;;;;;9.53;6.75;;;;;;;0.71;100.00;97867.16;1712014;83;21064;-65
2022/04/03 05:07:34;;;;;;;7.33;5.78;;;;;;;0.70;100.00;97868.80;1738819;80;21155;-66
2022/04/03 05:10:02;;;;;;;8.63;6.40;;;;;;;0.69;100.00;97868.00;1744866;81;21015;-66
2022/04/03 05:12:29;;;;;;;8.80;6.10;;;;;;;0.67;100.00;97867.48;1738966;81;21110;-65
2022/04/03 05:14:57;;;;;;;11.05;7.17;;;;;;;0.66;100.00;97869.92;1730326;81;21609;-67
2022/04/03 05:17:26;;;;;;;8.90;6.67;;;;;;;0.70;100.00;97864.20;1712112;83;21412;-66
2022/04/03 05:19:55;;;;;;;8.53;6.60;;;;;;;0.79;100.00;97868.39;1698450;81;20936;-66
2022/04/03 05:22:26;;;;;;;9.10;7.12;;;;;;;0.81;100.00;97862.95;1688487;83;21517;-67
2022/04/03 05:24:54;;;;;;;9.90;7.53;;;;;;;0.75;100.00;97866.02;1748682;82;20925;-71
2022/04/03 05:27:21;;;;;;;11.88;7.80;;;;;;;0.74;100.00;97861.17;1712232;83;21606;-71
2022/04/03 05:29:50;;;;;;;9.70;6.95;;;;;;;0.74;100.00;97862.52;1675997;84;21071;-70
2022/04/03 05:32:28;;;;;;;12.53;7.65;;;;;;;0.73;100.00;97862.81;1661616;84;21140;-70
2022/04/03 05:34:56;;;;;;;10.80;7.35;;;;;;;0.73;100.00;97865.52;1671374;84;21101;-71
2022/04/03 05:37:23;;;;;;;9.58;6.95;;;;;;;0.73;100.00;97867.66;1666702;84;21000;-68
2022/04/03 05:39:53;;;;;;;12.20;7.35;;;;;;;0.76;100.00;97864.92;1661950;84;21051;-68
2022/04/03 05:42:21;;;;;;;10.30;6.70;;;;;;;0.81;100.00;97860.80;1720498;82;21182;-68
2022/04/03 05:44:49;;;;;;;11.70;7.42;;;;;;;0.85;100.00;97869.92;1723652;82;21862;-67
2022/04/03 05:47:17;;;;;;;15.98;9.13;;;;;;;0.90;100.00;97861.75;1734767;82;20972;-67
2022/04/03 05:49:45;;;;;;;9.60;6.80;;;;;;;0.91;100.00;97867.41;1727082;81;21060;-67
2022/04/03 05:52:12;;;;;;;11.20;8.05;;;;;;;0.92;100.00;97861.70;1724725;82;20956;-67
2022/04/03 05:54:39;;;;;;;12.23;7.30;;;;;;;0.94;100.00;97869.52;1717720;82;21066;-67
2022/04/03 05:57:09;;;;;;;9.90;6.72;;;;;;;0.96;100.00;97865.98;1721189;82;21337;-67
2022/04/03 05:59:35;;;;;;;10.43;7.30;;;;;;;0.94;100.00;97863.57;1713687;82;21430;-68
2022/04/03 06:02:05;;;;;;;9.45;7.15;;;;;;;0.95;100.00;97861.67;1721163;81;21506;-68
2022/04/03 06:04:33;;;;;;;8.45;6.65;;;;;;;0.97;100.00;97864.88;1729759;82;21020;-68
2022/04/03 06:07:01;;;;;;;11.50;7.37;;;;;;;0.94;100.00;97866.81;1741449;82;21044;-67
2022/04/03 06:09:27;;;;;;;11.35;7.80;;;;;;;0.92;100.00;97872.52;1735365;82;21151;-73
2022/04/03 06:11:54;;;;;;;9.68;7.22;;;;;;;0.92;100.00;97870.36;1731242;82;20939;-73
2022/04/03 06:14:22;;;;;;;10.53;7.75;;;;;;;0.93;100.00;97871.97;1727018;82;21431;-81
2022/04/03 06:16:49;;;;;;;12.58;7.70;;;;;;;0.95;100.00;97877.88;1729389;80;20994;-68
2022/04/03 06:19:16;;;;;;;10.78;7.83;;;;;;;1.02;100.00;97874.81;1741356;80;20853;-70
2022/04/03 06:21:43;;;;;;;9.43;7.30;;;;;;;1.10;100.00;97874.95;1730832;82;21306;-70
2022/04/03 06:24:10;;;;;;;10.55;7.15;;;;;;;1.15;100.00;97872.70;1736688;82;21514;-74
2022/04/03 06:26:37;;;;;;;12.45;8.50;;;;;;;1.20;100.00;97881.51;1730214;82;21002;-74
2022/04/03 06:29:05;;;;;;;8.10;6.40;;;;;;;1.22;100.00;97883.37;1737289;82;20979;-72
2022/04/03 06:31:32;;;;;;;10.25;7.05;;;;;;;1.26;100.00;97885.73;1721940;82;20980;-69
2022/04/03 06:33:59;;;;;;;9.38;6.28;;;;;;;1.29;100.00;97880.29;1724932;82;21238;-73
2022/04/03 06:36:28;;;;;;;10.38;6.97;;;;;;;1.33;100.00;97878.05;1729786;82;20853;-73
2022/04/03 06:38:55;;;;;;;11.35;7.53;;;;;;;1.41;100.00;97873.06;1729208;82;21641;-71
2022/04/03 06:41:23;;;;;;;10.08;7.22;;;;;;;1.46;100.00;97871.62;1717033;82;21882;-71
2022/04/03 06:43:50;;;;;;;8.48;6.60;;;;;;;1.54;100.00;97873.09;1724007;82;21070;-73
2022/04/03 06:46:17;;;;;;;9.15;6.22;;;;;;;1.65;100.00;97877.23;1726894;82;21039;-72
2022/04/03 06:48:44;;;;;;;7.70;5.87;;;;;;;1.73;100.00;97881.15;1737186;82;20967;-69
2022/04/03 06:51:11;;;;;;;6.97;5.35;;;;;;;1.70;100.00;97892.56;1729996;82;20985;-70
2022/04/03 06:53:37;;;;;;;7.92;5.97;;;;;;;1.68;100.00;97888.00;1723694;82;20964;-68
2022/04/03 06:56:05;;;;;;;8.60;6.00;;;;;;;1.68;100.00;97889.36;1729622;81;20920;-67
2022/04/03 06:58:35;;;;;;;7.12;5.25;;;;;;;1.71;100.00;97887.96;1728433;82;21286;-67
2022/04/03 07:01:02;;;;;;;7.10;5.05;;;;;;;1.74;100.00;97894.90;1724238;82;20920;-68
2022/04/03 07:03:32;;;;;;;8.88;5.95;;;;;;;1.75;100.00;97891.64;1732820;82;21077;-68
2022/04/03 07:06:02;;;;;;;6.37;5.12;;;;;;;1.78;100.00;97893.20;1735079;81;21506;-68
2022/04/03 07:08:29;;;;;;;7.50;5.90;;;;;;;1.86;100.00;97895.22;1724175;82;21366;-71
2022/04/03 07:10:56;;;;;;;10.35;6.75;;;;;;;1.94;100.00;97895.08;1730989;82;21067;-67
2022/04/03 07:13:23;;;;;;;8.35;6.83;;;;;;;1.97;100.00;97901.25;1722471;82;20967;-71
2022/04/03 07:15:50;;;;;;;7.17;5.15;;;;;;;2.01;100.00;97905.51;1742483;82;21007;-69
2022/04/03 07:18:17;;;;;;;8.03;5.33;;;;;;;2.06;100.00;97910.28;1732884;82;20997;-70
2022/04/03 07:20:52;;;;;;;5.87;4.83;;;;;;;2.13;100.00;97914.75;1730864;81;20982;-66
2022/04/03 07:23:16;;;;;;;6.33;4.62;;;;;;;2.22;100.00;97914.30;1728501;82;21284;-68
2022/04/03 07:25:43;;;;;;;5.60;4.47;;;;;;;2.35;100.00;97912.66;1734381;82;20983;-67
2022/04/03 07:28:10;;;;;;;5.35;4.17;;;;;;;2.48;100.00;97907.80;1736725;81;21050;-68
2022/04/03 07:30:38;;;;;;;5.72;4.22;;;;;;;2.47;100.00;97903.48;1733755;82;20995;-69
2022/04/03 07:33:05;;;;;;;6.67;4.97;;;;;;;2.49;100.00;97906.69;1742110;82;21406;-70
2022/04/03 07:35:33;;;;;;;7.17;3.67;;;;;;;2.53;100.00;97906.33;1723318;82;21392;-78
2022/04/03 07:38:02;;;;;;;5.80;4.37;;;;;;;2.47;100.00;97911.61;1731862;82;21463;-74
2022/04/03 07:40:29;;;;;;;7.58;4.90;;;;;;;2.37;100.00;97911.01;1729849;82;21546;-65
2022/04/03 07:42:56;;;;;;;5.25;4.35;;;;;;;2.37;100.00;97911.01;1734519;81;20928;-66
2022/04/03 07:45:23;;;;;;;5.55;3.75;;;;;;;2.43;100.00;97913.86;1728574;81;21021;-71
2022/04/03 07:47:52;;;;;;;4.87;3.75;;;;;;;2.49;100.00;97906.69;1721580;82;21774;-68
2022/04/03 07:50:21;;;;;;;6.08;4.12;;;;;;;2.61;100.00;97902.91;1733230;82;20987;-68
2022/04/03 07:52:49;;;;;;;6.53;4.35;;;;;;;2.88;100.00;97901.25;1724794;82;21094;-69
2022/04/03 07:55:17;;;;;;;5.83;4.60;;;;;;;3.36;100.00;97899.30;1724562;80;21025;-69
2022/04/03 07:57:44;;;;;;;6.60;4.22;;;;;;;3.36;100.00;97899.30;1736564;80;21507;-68
2022/04/03 08:00:15;;;;;;;4.78;3.52;;;;;;;3.29;98.68;97910.02;1743536;81;21538;-68
2022/04/03 08:02:42;;;;;;;4.15;3.05;;;;;;;3.22;99.33;97915.08;1740004;81;20984;-68
2022/04/03 08:05:10;;;;;;;4.22;3.08;;;;;;;3.16;98.52;97912.23;1744074;81;21427;-68
2022/04/03 08:07:39;;;;;;;3.42;2.92;;;;;;;3.16;99.63;97902.74;1742414;82;20904;-68
2022/04/03 08:10:08;;;;;;;3.72;2.77;;;;;;;3.23;100.00;97909.90;1737123;81;21436;-68
2022/04/03 08:12:37;;;;;;;4.70;3.27;;;;;;;3.33;100.00;97908.05;1743529;81;21261;-68
2022/04/03 08:15:07;;;;;;;4.22;3.10;;;;;;;3.34;99.24;97915.88;1745622;81;21530;-67
2022/04/03 08:17:53;;;;;;;;;;;;;;;;;;;;;
2022/04/03 08:20:29;;;;;;;3.83;2.98;;;;;;;3.45;100.00;97911.82;1730763;82;21487;-68
2022/04/03 08:23:14;;;;;;;3.80;2.17;;;;;;;3.52;99.10;97917.58;1734934;81;20987;-66
2022/04/03 08:25:48;;;;;;;2.83;2.40;;;;;;;3.79;97.70;97916.64;1729080;82;20980;-65
2022/04/03 08:28:46;;;;;;;3.00;2.45;;;;;;;3.79;97.70;97916.64;1726933;82;21518;-67
2022/04/03 08:31:23;;;;;;;2.60;1.90;;;;;;;3.77;97.01;97927.56;1646442;86;21510;-66
2022/04/03 08:33:51;;;;;;;4.33;2.90;;;;;;;3.58;96.21;97924.48;1721561;81;21635;-66
2022/04/03 08:36:18;;;;;;;3.52;2.70;;;;;;;3.42;95.90;97927.91;1711321;82;21497;-66
2022/04/03 08:38:46;;;;;;;6.95;2.90;;;;;;;3.28;95.67;97927.41;1728005;81;21969;-67
2022/04/03 08:41:13;;;;;;;3.45;2.80;;;;;;;3.24;96.71;97935.11;1729362;82;21544;-68
2022/04/03 08:43:41;;;;;;;4.60;2.50;;;;;;;3.34;97.33;97932.71;1727828;82;20983;-68
2022/04/03 08:46:09;;;;;;;4.28;2.77;;;;;;;3.34;97.33;97932.71;1723812;82;21107;-68
2022/04/03 08:48:38;;;;;;;4.22;2.42;;;;;;;3.40;95.20;97932.28;1728361;82;20877;-68
2022/04/03 08:51:05;;;;;;;3.85;2.42;;;;;;;3.47;93.94;97932.62;1718704;82;21140;-68
2022/04/03 08:53:32;;;;;;;4.22;2.30;;;;;;;3.44;93.54;97935.19;1716953;82;20968;-68
2022/04/03 08:56:01;;;;;;;3.02;2.50;;;;;;;3.38;92.36;97943.20;1713059;82;21427;-69
2022/04/03 08:58:28;;;;;;;4.00;2.60;;;;;;;3.24;92.11;97939.98;1741067;81;20923;-69
2022/04/03 09:00:56;;;;;;;3.98;2.20;;;;;;;3.10;91.84;97937.86;1738888;81;21047;-68
2022/04/03 09:03:24;;;;;;;2.70;2.30;;;;;;;3.02;93.33;97949.98;1743971;81;20903;-69
2022/04/03 09:05:51;;;;;;;5.97;3.10;;;;;;;3.05;95.08;97945.30;1749068;80;21490;-69
2022/04/03 09:08:19;;;;;;;3.70;2.72;;;;;;;3.12;92.79;97934.29;1748017;81;20880;-68
2022/04/03 09:11:07;;;;;;;3.62;2.70;;;;;;;3.23;94.31;97941.09;1747607;82;20936;-69
2022/04/03 09:13:36;;;;;;;3.52;2.60;;;;;;;3.35;92.52;97945.16;1742158;82;21101;-69
2022/04/03 09:16:05;;;;;;;2.80;2.20;;;;;;;3.33;91.25;97942.77;1730577;81;21290;-69
2022/04/03 09:18:52;;;;;;;3.22;2.25;;;;;;;3.25;92.90;97947.56;1724914;81;21043;-68
2022/04/03 09:21:26;;;;;;;2.77;2.05;;;;;;;3.21;93.53;97950.64;1723508;81;21085;-67
2022/04/03 09:24:11;;;;;;;3.25;2.40;;;;;;;3.14;93.85;97954.32;1722570;82;21016;-68
2022/04/03 09:26:40;;;;;;;3.77;2.67;;;;;;;3.09;94.82;97951.17;1727140;82;21008;-68
2022/04/03 09:29:16;;;;;;;3.80;2.22;;;;;;;3.10;95.68;97950.06;1726127;82;21265;-68
2022/04/03 09:31:45;;;;;;;3.55;2.17;;;;;;;3.15;96.22;97952.66;1717928;82;20959;-68
2022/04/03 09:34:18;;;;;;;6.28;2.75;;;;;;;3.25;96.99;97948.91;1722655;81;20959;-67
2022/04/03 09:37:00;;;;;;;3.72;2.35;;;;;;;3.38;97.25;97948.63;1711224;82;21080;-68
2022/04/03 09:39:29;;;;;;;5.70;1.87;;;;;;;3.48;97.06;97948.34;1721360;81;20932;-68
2022/04/03 09:42:02;;;;;;;3.52;1.87;;;;;;;3.49;94.45;97951.31;1727113;81;21192;-68
2022/04/03 09:44:39;;;;;;;2.25;2.00;;;;;;;3.54;94.60;97947.92;1720077;81;21096;-68
2022/04/03 09:47:20;;;;;;;2.20;2.00;;;;;;;3.71;94.33;97941.81;1727227;82;20999;-68
2022/04/03 09:49:57;;;;;;;2.90;1.82;;;;;;;4.09;93.39;97941.36;1711760;82;20920;-68
2022/04/03 09:52:40;;;;;;;4.22;2.10;;;;;;;4.09;93.39;97941.36;1720258;82;21691;-69
2022/04/03 09:55:20;;;;;;;3.58;2.40;;;;;;;4.17;92.02;97939.25;1719235;82;21200;-68
2022/04/03 09:57:49;;;;;;;3.05;2.20;;;;;;;4.06;89.61;97942.78;1709229;83;21296;-65
2022/04/03 10:00:34;;;;;;;3.00;1.87;;;;;;;3.87;89.51;97949.81;1710559;83;21008;-68
2022/04/03 10:03:02;;;;;;;2.80;2.35;;;;;;;3.61;89.20;97946.13;1718584;83;21014;-72
2022/04/03 10:05:36;;;;;;;5.10;2.20;;;;;;;3.61;89.20;97946.13;1710918;83;21091;-73
2022/04/03 10:08:06;;;;;;;3.50;1.98;;;;;;;3.43;89.81;97958.00;1713344;83;21232;-72
2022/04/03 10:10:35;;;;;;;3.92;2.08;;;;;;;3.43;89.81;97958.00;1718297;83;21018;-69
2022/04/03 10:13:04;;;;;;;3.90;2.17;;;;;;;3.30;90.05;97956.38;1716873;83;20887;-70
2022/04/03 10:15:32;;;;;;;4.90;2.33;;;;;;;3.16;91.22;97971.89;1712452;83;20987;-71
2022/04/03 10:18:01;;;;;;;3.27;2.52;;;;;;;3.03;91.97;97973.27;1715023;83;21499;-71
2022/04/03 10:20:30;;;;;;;3.25;2.12;;;;;;;2.92;92.92;97969.98;1714741;83;20888;-69
2022/04/03 10:23:01;;;;;;;3.00;2.12;;;;;;;2.87;93.60;97980.95;1711426;83;20896;-67
2022/04/03 10:25:30;;;;;;;3.95;2.90;;;;;;;2.83;93.78;97978.05;1709803;83;21443;-68
2022/04/03 10:28:01;;;;;;;5.12;3.20;;;;;;;2.80;93.77;97982.72;1712882;83;20903;-73
2022/04/03 10:30:45;;;;;;;5.47;3.70;;;;;;;2.84;93.93;97981.56;1718317;83;20876;-76
2022/04/03 10:33:19;;;;;;;7.92;4.28;;;;;;;2.87;94.48;97980.95;1714122;83;21280;-74
2022/04/03 10:35:52;;;;;;;5.45;3.65;;;;;;;2.96;94.60;97983.98;1711665;83;21479;-66
2022/04/03 10:38:19;;;;;;;6.65;3.47;;;;;;;3.02;94.22;97990.09;1706833;83;20988;-65
2022/04/03 10:40:59;;;;;;;3.67;2.45;;;;;;;3.03;93.27;97982.77;1712720;83;21046;-64
2022/04/03 10:43:29;;;;;;;5.35;2.35;;;;;;;3.06;93.66;97983.51;1712255;83;20880;-64
2022/04/03 10:46:04;;;;;;;5.62;2.77;;;;;;;3.06;92.99;97988.37;1711406;83;22758;-64
2022/04/03 10:48:37;;;;;;;4.62;3.02;;;;;;;3.02;91.86;97990.64;1693594;83;20931;-65
2022/04/03 10:51:12;;;;;;;5.10;2.92;;;;;;;2.97;90.04;97980.72;1710294;83;21412;-65
2022/04/03 10:53:48;;;;;;;3.02;2.30;;;;;;;2.96;89.03;97988.05;1709690;83;20979;-64
2022/04/03 10:56:26;;;;;;;3.70;2.60;;;;;;;3.01;87.90;97983.62;1716944;83;20924;-69
2022/04/03 10:58:55;;;;;;;4.60;2.52;;;;;;;3.10;89.18;97985.31;1711903;83;21172;-69
2022/04/03 11:01:34;;;;;;;2.83;2.25;;;;;;;3.36;89.25;97981.48;1711358;83;20939;-68
2022/04/03 11:04:12;;;;;;;3.67;2.12;;;;;;;3.64;88.54;97980.80;1716444;83;20982;-69
2022/04/03 11:06:43;;;;;;;3.45;2.37;;;;;;;3.85;87.64;97983.26;1719673;83;20907;-71
2022/04/03 11:09:13;;;;;;;2.95;1.80;;;;;;;3.87;84.94;97985.66;1719746;83;20939;-69
2022/04/03 11:12:01;;;;;;;2.75;1.92;;;;;;;3.52;82.42;97991.39;1717019;83;21483;-69
2022/04/03 11:14:56;;;;;;;2.17;1.77;;;;;;;3.52;82.42;97991.39;1712895;83;21424;-70
2022/04/03 11:17:48;;;;;;;4.72;2.02;;;;;;;3.39;82.57;97997.70;1716570;83;20987;-71
2022/04/03 11:20:39;;;;;;;3.85;2.70;;;;;;;3.26;84.20;98003.41;1710720;83;20892;-66
2022/04/03 11:23:10;;;;;;;2.77;2.00;;;;;;;3.24;84.84;98005.62;1707644;83;20952;-66
2022/04/03 11:25:38;;;;;;;2.12;1.70;;;;;;;3.15;84.45;98013.67;1713013;83;21116;-74
2022/04/03 11:28:06;;;;;;;2.33;1.90;;;;;;;3.05;84.14;98012.53;1730547;80;20939;-70
2022/04/03 11:30:34;;;;;;;2.60;2.00;;;;;;;2.93;84.08;98013.05;1741854;82;20998;-67
2022/04/03 11:33:03;;;;;;;2.42;1.57;;;;;;;2.83;83.64;98017.91;1746123;81;21003;-69
2022/04/03 11:35:34;;;;;;;2.60;1.80;;;;;;;2.71;84.70;98022.47;1744964;81;20908;-67
2022/04/03 11:38:03;;;;;;;5.25;2.30;;;;;;;2.71;84.70;98022.47;1736500;81;21040;-68
2022/04/03 11:40:31;;;;;;;2.67;2.25;;;;;;;2.72;84.86;98017.86;1737307;82;20968;-70
2022/04/03 11:43:17;;;;;;;6.95;2.42;;;;;;;2.75;86.04;98018.05;1702373;82;20857;-67
2022/04/03 11:45:50;;;;;;;5.42;2.60;;;;;;;2.79;86.67;98010.93;1732809;82;21010;-67
2022/04/03 11:48:20;;;;;;;3.85;2.30;;;;;;;2.81;86.44;98016.05;1730398;81;21098;-66